Time;durP1;ratioP1;P1;durP2;ratioP2;P2;SDS_P1;SDS_P2;PMS_P1;PMS_P2;Temp;Humidity;BMP_temperature;BMP_pressure;BME280_temperature;BME280_humidity;BME280_pressure;Samples;Min_cycle;Max_cycle;Signal;HPM_P1;HPM_P2
2021/03/14 00:00:17;;;;;;;1999.90;999.90;;;;;;;;;;5141339;27;20284;-38
2021/03/14 00:03:05;;;;;;;1999.90;999.90;;;;;;;;;;5140944;27;20336;-40
2021/03/14 00:05:52;;;;;;;1999.90;999.90;;;;;;;;;;5141207;27;20198;-38
2021/03/14 00:08:40;;;;;;;1999.90;999.90;;;;;;;;;;5140965;27;20723;-38
2021/03/14 00:11:25;;;;;;;1999.90;999.90;;;;;;;;;;5141518;27;20652;-38
2021/03/14 00:14:11;;;;;;;1999.90;999.90;;;;;;;;;;5141026;27;20197;-35
2021/03/14 00:16:57;;;;;;;1999.90;999.90;;;;;;;;;;5141278;27;20191;-37
2021/03/14 00:19:43;;;;;;;1999.90;999.90;;;;;;;;;;5141073;27;20197;-35
2021/03/14 00:22:29;;;;;;;1999.90;999.90;;;;;;;;;;5140930;27;20316;-40
2021/03/14 00:25:16;;;;;;;1999.90;999.90;;;;;;;;;;5141033;27;20214;-37
2021/03/14 00:28:02;;;;;;;1999.90;999.90;;;;;;;;;;5141179;27;20648;-37
2021/03/14 00:30:48;;;;;;;1999.90;999.90;;;;;;;;;;5140784;27;20475;-35
2021/03/14 00:33:38;;;;;;;1999.90;999.90;;;;;;;;;;5140793;27;20260;-36
2021/03/14 00:36:25;;;;;;;1999.90;999.90;;;;;;;;;;5141148;27;20198;-37
2021/03/14 00:39:11;;;;;;;1999.90;999.90;;;;;;;;;;5140645;27;20210;-37
2021/03/14 00:41:59;;;;;;;1999.90;999.90;;;;;;;;;;5140809;27;20193;-38
2021/03/14 00:44:45;;;;;;;1999.90;999.90;;;;;;;;;;5140835;27;20254;-39
2021/03/14 00:47:32;;;;;;;1999.90;999.90;;;;;;;;;;5140662;27;20218;-36
2021/03/14 00:50:18;;;;;;;1999.90;999.90;;;;;;;;;;5140463;27;20194;-37
2021/03/14 00:53:06;;;;;;;1999.90;999.90;;;;;;;;;;5140331;27;20215;-37
2021/03/14 00:55:55;;;;;;;1999.90;999.90;;;;;;;;;;5140568;27;20198;-36
2021/03/14 00:58:42;;;;;;;1999.90;999.90;;;;;;;;;;5140064;27;20296;-37
2021/03/14 01:01:28;;;;;;;1999.90;999.90;;;;;;;;;;5140453;27;20194;-40
2021/03/14 01:04:14;;;;;;;1999.90;999.90;;;;;;;;;;5140246;27;20514;-37
2021/03/14 01:07:00;;;;;;;1999.90;999.90;;;;;;;;;;5140210;27;20511;-38
2021/03/14 01:09:47;;;;;;;1999.90;999.90;;;;;;;;;;5140107;27;20202;-37
2021/03/14 01:12:33;;;;;;;1999.90;999.90;;;;;;;;;;5140283;27;20198;-38
2021/03/14 01:15:19;;;;;;;1999.90;999.90;;;;;;;;;;5140273;27;20199;-35
2021/03/14 01:18:07;;;;;;;1999.90;999.90;;;;;;;;;;5139726;27;20341;-38
2021/03/14 01:20:53;;;;;;;1999.90;999.90;;;;;;;;;;5139856;27;20617;-40
2021/03/14 01:23:39;;;;;;;1999.90;999.90;;;;;;;;;;5139634;27;20199;-38
2021/03/14 01:26:27;;;;;;;1999.90;999.90;;;;;;;;;;5139985;27;20374;-37
2021/03/14 01:29:16;;;;;;;1999.90;999.90;;;;;;;;;;5139994;27;20195;-37
2021/03/14 01:32:02;;;;;;;1999.90;999.90;;;;;;;;;;5139778;27;20237;-38
2021/03/14 01:34:51;;;;;;;1999.90;999.90;;;;;;;;;;5139647;27;20348;-39
2021/03/14 01:37:38;;;;;;;1999.90;999.90;;;;;;;;;;5139407;27;20490;-38
2021/03/14 01:40:26;;;;;;;1999.90;999.90;;;;;;;;;;5139199;27;20211;-39
2021/03/14 01:43:12;;;;;;;1999.90;999.90;;;;;;;;;;5139184;27;20487;-35
2021/03/14 01:45:59;;;;;;;1999.90;999.90;;;;;;;;;;5139299;27;20197;-40
2021/03/14 01:48:45;;;;;;;1999.90;999.90;;;;;;;;;;5139263;27;20656;-37
2021/03/14 01:51:31;;;;;;;1999.90;999.90;;;;;;;;;;5139627;27;20201;-37
2021/03/14 01:54:17;;;;;;;1999.90;999.90;;;;;;;;;;5139166;27;20492;-35
2021/03/14 01:57:03;;;;;;;1999.90;999.90;;;;;;;;;;5139449;27;20202;-38
2021/03/14 01:59:50;;;;;;;1999.90;999.90;;;;;;;;;;5139034;27;20526;-38
2021/03/14 02:02:36;;;;;;;1999.90;999.90;;;;;;;;;;5138626;27;20198;-39
2021/03/14 02:05:25;;;;;;;1999.90;999.90;;;;;;;;;;5138905;27;20200;-37
2021/03/14 02:08:14;;;;;;;1999.90;999.90;;;;;;;;;;5138799;27;20227;-38
2021/03/14 02:11:00;;;;;;;1999.90;999.90;;;;;;;;;;5137905;27;20195;-39
2021/03/14 02:13:48;;;;;;;1999.90;999.90;;;;;;;;;;5138564;27;20537;-39
2021/03/14 02:16:41;;;;;;;1999.90;999.90;;;;;;;;;;5138718;27;20345;-38
2021/03/14 02:19:29;;;;;;;1999.90;999.90;;;;;;;;;;5138303;27;20193;-37
2021/03/14 02:22:15;;;;;;;1999.90;999.90;;;;;;;;;;5138434;27;20203;-37
2021/03/14 02:25:01;;;;;;;1999.90;999.90;;;;;;;;;;5138457;27;20355;-37
2021/03/14 02:27:48;;;;;;;1999.90;999.90;;;;;;;;;;5137969;27;20230;-35
2021/03/14 02:30:35;;;;;;;1999.90;999.90;;;;;;;;;;5138443;27;20200;-38
2021/03/14 02:33:23;;;;;;;1999.90;999.90;;;;;;;;;;5138579;27;20199;-37
2021/03/14 02:36:13;;;;;;;1999.90;999.90;;;;;;;;;;5138584;27;20198;-38
2021/03/14 02:39:00;;;;;;;1999.90;999.90;;;;;;;;;;5138136;27;20269;-38
2021/03/14 02:41:47;;;;;;;1999.90;999.90;;;;;;;;;;5138275;27;20249;-38
2021/03/14 02:44:35;;;;;;;1999.90;999.90;;;;;;;;;;5138203;27;20206;-36
2021/03/14 02:47:21;;;;;;;1999.90;999.90;;;;;;;;;;5138151;27;20314;-34
2021/03/14 02:50:21;;;;;;;1999.90;999.90;;;;;;;;;;5138299;27;20197;-38
2021/03/14 02:53:06;;;;;;;1999.90;999.90;;;;;;;;;;5137607;27;20194;-39
2021/03/14 02:55:53;;;;;;;1999.90;999.90;;;;;;;;;;5138146;27;20197;-40
2021/03/14 02:58:39;;;;;;;1999.90;999.90;;;;;;;;;;5138303;27;20203;-40
2021/03/14 03:01:28;;;;;;;1999.90;999.90;;;;;;;;;;5138037;27;20214;-35
2021/03/14 03:04:14;;;;;;;1999.90;999.90;;;;;;;;;;5137612;27;20299;-40
2021/03/14 03:07:00;;;;;;;1999.90;999.90;;;;;;;;;;5138048;27;20277;-39
2021/03/14 03:09:46;;;;;;;1999.90;999.90;;;;;;;;;;5137824;27;20269;-37
2021/03/14 03:12:32;;;;;;;1999.90;999.90;;;;;;;;;;5138133;27;20247;-35
2021/03/14 03:15:21;;;;;;;1999.90;999.90;;;;;;;;;;5137840;27;20600;-35
2021/03/14 03:18:08;;;;;;;1999.90;999.90;;;;;;;;;;5137683;28;20249;-36
2021/03/14 03:20:54;;;;;;;1999.90;999.90;;;;;;;;;;5139555;27;20206;-36
2021/03/14 03:23:40;;;;;;;1999.90;999.90;;;;;;;;;;5144426;27;20236;-39
2021/03/14 03:26:26;;;;;;;1999.90;999.90;;;;;;;;;;5144678;27;20355;-38
2021/03/14 03:29:12;;;;;;;1999.90;999.90;;;;;;;;;;5144957;27;20298;-38
2021/03/14 03:31:59;;;;;;;1999.90;999.90;;;;;;;;;;5144558;27;20198;-37
2021/03/14 03:34:46;;;;;;;1999.90;999.90;;;;;;;;;;5144850;27;20202;-39
2021/03/14 03:37:33;;;;;;;1999.90;999.90;;;;;;;;;;5145436;27;20344;-37
2021/03/14 03:40:21;;;;;;;1999.90;999.90;;;;;;;;;;5144890;27;20194;-38
2021/03/14 03:43:09;;;;;;;1999.90;999.90;;;;;;;;;;5144469;27;20198;-40
2021/03/14 03:45:57;;;;;;;1999.90;999.90;;;;;;;;;;5144549;27;20202;-39
2021/03/14 03:48:45;;;;;;;1999.90;999.90;;;;;;;;;;5144164;27;20237;-38
2021/03/14 03:51:32;;;;;;;1999.90;999.90;;;;;;;;;;5144397;27;20484;-36
2021/03/14 03:54:18;;;;;;;1999.90;999.90;;;;;;;;;;5144583;27;20228;-38
2021/03/14 03:57:04;;;;;;;1999.90;999.90;;;;;;;;;;5144283;27;20210;-37
2021/03/14 03:59:51;;;;;;;1999.90;999.90;;;;;;;;;;5144038;27;20199;-39
2021/03/14 04:02:37;;;;;;;1999.90;999.90;;;;;;;;;;5144450;27;20800;-39
2021/03/14 04:05:23;;;;;;;1999.90;999.90;;;;;;;;;;5144366;27;20336;-38
2021/03/14 04:08:11;;;;;;;1999.90;999.90;;;;;;;;;;5144322;27;20230;-34
2021/03/14 04:10:56;;;;;;;1999.90;999.90;;;;;;;;;;5144139;27;20239;-39
2021/03/14 04:13:43;;;;;;;1999.90;999.90;;;;;;;;;;5144095;27;20234;-37
2021/03/14 04:16:28;;;;;;;1999.90;999.90;;;;;;;;;;5143794;27;20469;-36
2021/03/14 04:19:15;;;;;;;1999.90;999.90;;;;;;;;;;5144108;27;20202;-38
2021/03/14 04:22:02;;;;;;;1999.90;999.90;;;;;;;;;;5144322;27;20197;-37
2021/03/14 04:24:51;;;;;;;1999.90;999.90;;;;;;;;;;5144178;27;20201;-38
2021/03/14 04:27:41;;;;;;;1999.90;999.90;;;;;;;;;;5144075;27;20231;-38
2021/03/14 04:30:28;;;;;;;1999.90;999.90;;;;;;;;;;5144171;27;20203;-40
2021/03/14 04:33:13;;;;;;;1999.90;999.90;;;;;;;;;;5141134;27;20288;-36
2021/03/14 04:36:00;;;;;;;1999.90;999.90;;;;;;;;;;5140482;27;20251;-38
2021/03/14 04:38:47;;;;;;;1999.90;999.90;;;;;;;;;;5140420;27;20291;-37
2021/03/14 04:41:35;;;;;;;1999.90;999.90;;;;;;;;;;5140548;27;20591;-38
2021/03/14 04:44:21;;;;;;;1999.90;999.90;;;;;;;;;;5139917;27;20202;-39
2021/03/14 04:47:08;;;;;;;1999.90;999.90;;;;;;;;;;5140431;27;20241;-35
2021/03/14 04:49:54;;;;;;;1999.90;999.90;;;;;;;;;;5140710;27;20296;-39
2021/03/14 04:52:42;;;;;;;1999.90;999.90;;;;;;;;;;5140776;27;20303;-39
2021/03/14 04:55:29;;;;;;;1999.90;999.90;;;;;;;;;;5139793;27;20546;-36
2021/03/14 04:58:17;;;;;;;1999.90;999.90;;;;;;;;;;5140182;27;20199;-34
2021/03/14 05:01:03;;;;;;;1999.90;999.90;;;;;;;;;;5140537;27;20211;-39
2021/03/14 05:03:51;;;;;;;1999.90;999.90;;;;;;;;;;5139564;27;20233;-40
2021/03/14 05:06:38;;;;;;;1999.90;999.90;;;;;;;;;;5140199;27;20204;-36
2021/03/14 05:09:25;;;;;;;1999.90;999.90;;;;;;;;;;5139890;27;20253;-37
2021/03/14 05:12:11;;;;;;;1999.90;999.90;;;;;;;;;;5139820;27;20362;-36
2021/03/14 05:15:00;;;;;;;1999.90;999.90;;;;;;;;;;5139347;27;20586;-36
2021/03/14 05:17:47;;;;;;;1999.90;999.90;;;;;;;;;;5139957;27;20205;-37
2021/03/14 05:20:33;;;;;;;1999.90;999.90;;;;;;;;;;5140243;27;20203;-41
2021/03/14 05:23:19;;;;;;;1999.90;999.90;;;;;;;;;;5139943;27;20306;-39
2021/03/14 05:26:09;;;;;;;1999.90;999.90;;;;;;;;;;5139736;27;20194;-39
2021/03/14 05:28:55;;;;;;;1999.90;999.90;;;;;;;;;;5139472;27;20222;-38
2021/03/14 05:31:42;;;;;;;1999.90;999.90;;;;;;;;;;5139778;27;20294;-44
2021/03/14 05:34:28;;;;;;;1999.90;999.90;;;;;;;;;;5139836;27;20278;-42
2021/03/14 05:37:14;;;;;;;1999.90;999.90;;;;;;;;;;5139329;27;20190;-41
2021/03/14 05:39:59;;;;;;;1999.90;999.90;;;;;;;;;;5139735;27;20247;-42
2021/03/14 05:42:45;;;;;;;1999.90;999.90;;;;;;;;;;5139666;27;20259;-40
2021/03/14 05:45:34;;;;;;;1999.90;999.90;;;;;;;;;;5138034;27;20218;-42
2021/03/14 05:48:20;;;;;;;1999.90;999.90;;;;;;;;;;5139379;27;20347;-40
2021/03/14 05:51:10;;;;;;;1999.90;999.90;;;;;;;;;;5139402;27;20206;-42
2021/03/14 05:53:56;;;;;;;1999.90;999.90;;;;;;;;;;5139191;27;20686;-40
2021/03/14 05:56:43;;;;;;;1999.90;999.90;;;;;;;;;;5138865;27;20193;-41
2021/03/14 05:59:30;;;;;;;1999.90;999.90;;;;;;;;;;5139061;27;20493;-42
2021/03/14 06:02:17;;;;;;;1999.90;999.90;;;;;;;;;;5138988;27;20198;-41
2021/03/14 06:05:04;;;;;;;1999.90;999.90;;;;;;;;;;5097985;28;20277;-38
2021/03/14 06:07:50;;;;;;;1999.90;999.90;;;;;;;;;;5097946;28;20222;-43
2021/03/14 06:10:36;;;;;;;1999.90;999.90;;;;;;;;;;5098719;28;20201;-42
2021/03/14 06:13:25;;;;;;;1999.90;999.90;;;;;;;;;;5098139;28;20200;-43
2021/03/14 06:16:11;;;;;;;1999.90;999.90;;;;;;;;;;5098034;28;20207;-43
2021/03/14 06:18:57;;;;;;;1999.90;999.90;;;;;;;;;;5097841;28;20278;-42
2021/03/14 06:21:44;;;;;;;1999.90;999.90;;;;;;;;;;5097428;28;20224;-43
2021/03/14 06:24:37;;;;;;;1999.90;999.90;;;;;;;;;;5097340;28;20611;-42
2021/03/14 06:27:29;;;;;;;1999.90;999.90;;;;;;;;;;5097733;28;20241;-42
2021/03/14 06:30:16;;;;;;;1999.90;999.90;;;;;;;;;;5097826;28;20466;-43
2021/03/14 06:33:03;;;;;;;1999.90;999.90;;;;;;;;;;5097854;28;20270;-43
2021/03/14 06:35:54;;;;;;;1999.90;999.90;;;;;;;;;;5097565;28;20196;-43
2021/03/14 06:38:40;;;;;;;1999.90;999.90;;;;;;;;;;5097806;28;20246;-43
2021/03/14 06:41:26;;;;;;;1999.90;999.90;;;;;;;;;;5097470;28;20200;-43
2021/03/14 06:44:21;;;;;;;1999.90;999.90;;;;;;;;;;5096956;28;20201;-44
2021/03/14 06:47:07;;;;;;;1999.90;999.90;;;;;;;;;;5097380;28;20288;-43
2021/03/14 06:49:54;;;;;;;1999.90;999.90;;;;;;;;;;5097311;28;20197;-52
2021/03/14 06:52:41;;;;;;;1999.90;999.90;;;;;;;;;;5097145;28;20208;-43
2021/03/14 06:55:28;;;;;;;1999.90;999.90;;;;;;;;;;5096442;28;20283;-43
2021/03/14 06:58:23;;;;;;;1999.90;999.90;;;;;;;;;;5097198;28;20202;-43
2021/03/14 07:01:10;;;;;;;1999.90;999.90;;;;;;;;;;5097399;28;20268;-43
2021/03/14 07:03:57;;;;;;;1999.90;999.90;;;;;;;;;;5124749;27;20235;-43
2021/03/14 07:06:42;;;;;;;1999.90;999.90;;;;;;;;;;5137709;27;20283;-42
2021/03/14 07:09:31;;;;;;;1999.90;999.90;;;;;;;;;;5138088;27;20358;-43
2021/03/14 07:12:19;;;;;;;1999.90;999.90;;;;;;;;;;5138129;27;20212;-43
2021/03/14 07:15:16;;;;;;;1999.90;999.90;;;;;;;;;;5136639;27;20291;-44
2021/03/14 07:18:07;;;;;;;1999.90;999.90;;;;;;;;;;5123835;28;20602;-44
2021/03/14 07:20:55;;;;;;;1999.90;999.90;;;;;;;;;;5121257;28;20209;-43
2021/03/14 07:23:46;;;;;;;1999.90;999.90;;;;;;;;;;5117236;28;20204;-44
2021/03/14 07:26:42;;;;;;;1999.90;999.90;;;;;;;;;;5118195;28;20192;-44
2021/03/14 07:29:28;;;;;;;1999.90;999.90;;;;;;;;;;5118095;28;20208;-44
2021/03/14 07:32:17;;;;;;;1999.90;999.90;;;;;;;;;;5130338;28;20196;-43
2021/03/14 07:35:04;;;;;;;1999.90;999.90;;;;;;;;;;5117497;28;20210;-44
2021/03/14 07:37:56;;;;;;;1999.90;999.90;;;;;;;;;;5117678;28;20201;-44
2021/03/14 07:40:42;;;;;;;1999.90;999.90;;;;;;;;;;5117431;28;20208;-43
2021/03/14 07:43:36;;;;;;;1999.90;999.90;;;;;;;;;;5134255;28;20204;-44
2021/03/14 07:46:25;;;;;;;1999.90;999.90;;;;;;;;;;5137807;28;20200;-43
2021/03/14 07:49:16;;;;;;;1999.90;999.90;;;;;;;;;;5137668;28;20239;-43
2021/03/14 07:52:03;;;;;;;1999.90;999.90;;;;;;;;;;5137718;28;20199;-43
2021/03/14 07:54:51;;;;;;;1999.90;999.90;;;;;;;;;;5136727;28;20259;-43
2021/03/14 07:57:42;;;;;;;1999.90;999.90;;;;;;;;;;5137684;28;20590;-43
2021/03/14 08:00:28;;;;;;;1999.90;999.90;;;;;;;;;;5137679;28;20199;-44
2021/03/14 08:03:15;;;;;;;1999.90;999.90;;;;;;;;;;5137295;28;20293;-43
2021/03/14 08:06:03;;;;;;;1999.90;999.90;;;;;;;;;;5137731;28;20277;-43
2021/03/14 08:08:51;;;;;;;1999.90;999.90;;;;;;;;;;5139846;27;20222;-43
2021/03/14 08:11:40;;;;;;;1999.90;999.90;;;;;;;;;;5139543;27;20218;-44
2021/03/14 08:14:41;;;;;;;1999.90;999.90;;;;;;;;;;5125907;27;20205;-43
2021/03/14 08:17:34;;;;;;;1999.90;999.90;;;;;;;;;;5119990;28;20201;-43
2021/03/14 08:20:36;;;;;;;1999.90;999.90;;;;;;;;;;5120002;28;20263;-43
2021/03/14 08:23:39;;;;;;;1999.90;999.90;;;;;;;;;;5120182;28;20354;-43
2021/03/14 08:26:27;;;;;;;1999.90;999.90;;;;;;;;;;5120382;28;20289;-43
2021/03/14 08:29:13;;;;;;;1999.90;999.90;;;;;;;;;;5122931;27;20236;-43
2021/03/14 08:32:00;;;;;;;1999.90;999.90;;;;;;;;;;5120240;28;20212;-43
2021/03/14 08:34:46;;;;;;;1999.90;999.90;;;;;;;;;;5119714;28;20201;-43
2021/03/14 08:37:33;;;;;;;1999.90;999.90;;;;;;;;;;5120432;28;20202;-43
2021/03/14 08:40:32;;;;;;;1999.90;999.90;;;;;;;;;;5120133;28;20221;-43
2021/03/14 08:43:37;;;;;;;1999.90;999.90;;;;;;;;;;5121334;28;20675;-42
2021/03/14 08:46:37;;;;;;;1999.90;999.90;;;;;;;;;;5120231;28;20350;-43
2021/03/14 08:49:26;;;;;;;1999.90;999.90;;;;;;;;;;5119836;28;20225;-43
2021/03/14 08:52:13;;;;;;;1999.90;999.90;;;;;;;;;;5120187;28;20194;-43
2021/03/14 08:55:07;;;;;;;1999.90;999.90;;;;;;;;;;5120031;28;20255;-44
2021/03/14 08:57:55;;;;;;;1999.90;999.90;;;;;;;;;;5120027;28;20617;-43
2021/03/14 09:00:41;;;;;;;1999.90;999.90;;;;;;;;;;5124356;27;20224;-43
2021/03/14 09:03:29;;;;;;;1999.90;999.90;;;;;;;;;;5139977;27;20530;-42
2021/03/14 09:06:24;;;;;;;1999.90;999.90;;;;;;;;;;5141016;27;20298;-43
2021/03/14 09:09:11;;;;;;;1999.90;999.90;;;;;;;;;;5140164;27;20223;-43
2021/03/14 09:11:58;;;;;;;1999.90;999.90;;;;;;;;;;5140034;27;20201;-43
2021/03/14 09:14:44;;;;;;;1999.90;999.90;;;;;;;;;;5139791;27;20208;-43
2021/03/14 09:17:51;;;;;;;1999.90;999.90;;;;;;;;;;5119929;28;20219;-43
2021/03/14 09:20:45;;;;;;;1999.90;999.90;;;;;;;;;;5119269;28;20217;-43
2021/03/14 09:23:40;;;;;;;1999.90;999.90;;;;;;;;;;5119882;28;20201;-45
2021/03/14 09:26:28;;;;;;;1999.90;999.90;;;;;;;;;;5119206;28;20218;-43
2021/03/14 09:29:15;;;;;;;1999.90;999.90;;;;;;;;;;5118765;28;20222;-43
2021/03/14 09:32:00;;;;;;;1999.90;999.90;;;;;;;;;;5119128;28;20628;-43
2021/03/14 09:34:46;;;;;;;1999.90;999.90;;;;;;;;;;5119001;28;20190;-43
2021/03/14 09:37:32;;;;;;;1999.90;999.90;;;;;;;;;;5118904;28;20200;-44
2021/03/14 09:40:26;;;;;;;1999.90;999.90;;;;;;;;;;5119212;28;20272;-43
2021/03/14 09:43:19;;;;;;;1999.90;999.90;;;;;;;;;;5119393;28;20205;-43
2021/03/14 09:46:05;;;;;;;1999.90;999.90;;;;;;;;;;5118611;28;20215;-44
2021/03/14 09:48:51;;;;;;;1999.90;999.90;;;;;;;;;;5132913;27;20290;-44
2021/03/14 09:51:39;;;;;;;1999.90;999.90;;;;;;;;;;5139339;27;20271;-44
2021/03/14 09:54:25;;;;;;;1999.90;999.90;;;;;;;;;;5139555;27;20202;-44
2021/03/14 09:57:11;;;;;;;1999.90;999.90;;;;;;;;;;5139353;27;20680;-44
2021/03/14 09:59:57;;;;;;;1999.90;999.90;;;;;;;;;;5139155;27;20197;-44
2021/03/14 10:02:44;;;;;;;1999.90;999.90;;;;;;;;;;5138095;27;20333;-44
2021/03/14 10:05:41;;;;;;;1999.90;999.90;;;;;;;;;;5138911;27;20367;-44
2021/03/14 10:08:32;;;;;;;1999.90;999.90;;;;;;;;;;5138949;27;20235;-43
2021/03/14 10:11:18;;;;;;;1999.90;999.90;;;;;;;;;;5138937;27;20205;-44
2021/03/14 10:14:04;;;;;;;1999.90;999.90;;;;;;;;;;5138429;27;20231;-44
2021/03/14 10:16:50;;;;;;;1999.90;999.90;;;;;;;;;;5138425;27;20333;-44
2021/03/14 10:19:40;;;;;;;1999.90;999.90;;;;;;;;;;5138443;27;20211;-43
2021/03/14 10:22:30;;;;;;;1999.90;999.90;;;;;;;;;;5138526;27;20486;-44
2021/03/14 10:25:25;;;;;;;1999.90;999.90;;;;;;;;;;5137775;27;20713;-45
2021/03/14 10:28:12;;;;;;;1999.90;999.90;;;;;;;;;;5137913;27;20232;-44
2021/03/14 10:31:01;;;;;;;1999.90;999.90;;;;;;;;;;5137612;27;20471;-44
2021/03/14 10:33:47;;;;;;;1999.90;999.90;;;;;;;;;;5138418;27;20197;-44
2021/03/14 10:36:35;;;;;;;1999.90;999.90;;;;;;;;;;5138350;27;20202;-43
2021/03/14 10:39:24;;;;;;;1999.90;999.90;;;;;;;;;;5138199;27;20289;-43
2021/03/14 10:42:26;;;;;;;1999.90;999.90;;;;;;;;;;5138587;27;20468;-43
2021/03/14 10:45:13;;;;;;;1999.90;999.90;;;;;;;;;;5138010;27;20197;-43
2021/03/14 10:48:00;;;;;;;1999.90;999.90;;;;;;;;;;5137898;27;20237;-43
2021/03/14 10:50:49;;;;;;;1999.90;999.90;;;;;;;;;;5138545;27;20278;-42
2021/03/14 10:53:36;;;;;;;1999.90;999.90;;;;;;;;;;5138680;27;20193;-42
2021/03/14 10:56:32;;;;;;;1999.90;999.90;;;;;;;;;;5138141;27;20205;-42
2021/03/14 10:59:24;;;;;;;1999.90;999.90;;;;;;;;;;5138016;27;20534;-42
2021/03/14 11:02:14;;;;;;;1999.90;999.90;;;;;;;;;;5138255;27;20190;-42
2021/03/14 11:05:01;;;;;;;1999.90;999.90;;;;;;;;;;5137552;27;20223;-42
2021/03/14 11:07:59;;;;;;;1999.90;999.90;;;;;;;;;;5138199;27;20285;-42
2021/03/14 11:10:56;;;;;;;1999.90;999.90;;;;;;;;;;5138177;27;20207;-42
2021/03/14 11:13:48;;;;;;;1999.90;999.90;;;;;;;;;;5138055;27;20199;-42
2021/03/14 11:16:34;;;;;;;1999.90;999.90;;;;;;;;;;5138166;27;20206;-41
2021/03/14 11:19:22;;;;;;;1999.90;999.90;;;;;;;;;;5136424;28;20196;-42
2021/03/14 11:22:10;;;;;;;1999.90;999.90;;;;;;;;;;5117656;28;20380;-42
2021/03/14 11:24:56;;;;;;;1999.90;999.90;;;;;;;;;;5117413;28;20201;-42
2021/03/14 11:27:44;;;;;;;1999.90;999.90;;;;;;;;;;5117414;28;20205;-43
2021/03/14 11:30:32;;;;;;;1999.90;999.90;;;;;;;;;;5117275;28;20262;-42
2021/03/14 11:33:18;;;;;;;1999.90;999.90;;;;;;;;;;5117600;28;20202;-42
2021/03/14 11:36:09;;;;;;;1999.90;999.90;;;;;;;;;;5117475;28;20206;-43
2021/03/14 11:38:54;;;;;;;1999.90;999.90;;;;;;;;;;5117507;28;20190;-43
2021/03/14 11:41:41;;;;;;;1999.90;999.90;;;;;;;;;;5117693;28;20203;-44
2021/03/14 11:44:28;;;;;;;1999.90;999.90;;;;;;;;;;5121302;28;20210;-43
2021/03/14 11:47:21;;;;;;;1999.90;999.90;;;;;;;;;;5121507;28;20222;-43
2021/03/14 11:50:11;;;;;;;1999.90;999.90;;;;;;;;;;5121342;28;20267;-43
2021/03/14 11:52:57;;;;;;;1999.90;999.90;;;;;;;;;;5121487;28;20218;-43
2021/03/14 11:55:47;;;;;;;1999.90;999.90;;;;;;;;;;5121566;28;20203;-43
2021/03/14 11:58:34;;;;;;;1999.90;999.90;;;;;;;;;;5121070;28;20271;-43
2021/03/14 12:01:21;;;;;;;1999.90;999.90;;;;;;;;;;5121254;28;20202;-43
2021/03/14 12:04:12;;;;;;;1999.90;999.90;;;;;;;;;;5125158;27;20229;-44
2021/03/14 12:11:17;;;;;;;1999.90;999.90;;;;;;;;;;5122824;27;20272;-43
2021/03/14 12:14:04;;;;;;;1999.90;999.90;;;;;;;;;;5120954;28;20597;-43
2021/03/14 12:16:54;;;;;;;1999.90;999.90;;;;;;;;;;5121148;28;20352;-43
2021/03/14 12:19:40;;;;;;;1999.90;999.90;;;;;;;;;;5120536;28;20194;-43
2021/03/14 12:22:28;;;;;;;1999.90;999.90;;;;;;;;;;5120726;28;20213;-43
2021/03/14 12:25:14;;;;;;;1999.90;999.90;;;;;;;;;;5120282;28;20202;-42
2021/03/14 12:28:02;;;;;;;1999.90;999.90;;;;;;;;;;5120297;28;20211;-44
2021/03/14 12:30:48;;;;;;;1999.90;999.90;;;;;;;;;;5120410;28;20198;-43
2021/03/14 12:33:35;;;;;;;1999.90;999.90;;;;;;;;;;5120092;28;20197;-43
2021/03/14 12:36:36;;;;;;;1999.90;999.90;;;;;;;;;;5120656;28;20629;-43
2021/03/14 12:39:48;;;;;;;1999.90;999.90;;;;;;;;;;5120176;28;20207;-44
2021/03/14 12:42:40;;;;;;;1999.90;999.90;;;;;;;;;;5120128;28;20199;-42
2021/03/14 12:45:29;;;;;;;1999.90;999.90;;;;;;;;;;5120035;28;20221;-42
2021/03/14 12:48:16;;;;;;;1999.90;999.90;;;;;;;;;;5119667;28;20273;-43
2021/03/14 12:51:07;;;;;;;1999.90;999.90;;;;;;;;;;5120187;28;20670;-44
2021/03/14 12:53:53;;;;;;;1999.90;999.90;;;;;;;;;;5119300;28;20198;-43
2021/03/14 12:56:43;;;;;;;1999.90;999.90;;;;;;;;;;5120112;28;20195;-42
2021/03/14 12:59:29;;;;;;;1999.90;999.90;;;;;;;;;;5119841;28;20194;-43
2021/03/14 13:02:14;;;;;;;1999.90;999.90;;;;;;;;;;5119883;28;20256;-43
2021/03/14 13:05:02;;;;;;;1999.90;999.90;;;;;;;;;;5078961;28;20483;-43
2021/03/14 13:07:51;;;;;;;1999.90;999.90;;;;;;;;;;5078956;28;20282;-43
2021/03/14 13:10:37;;;;;;;1999.90;999.90;;;;;;;;;;5078483;28;20208;-42
2021/03/14 13:13:25;;;;;;;1999.90;999.90;;;;;;;;;;5078673;28;20211;-42
2021/03/14 13:16:13;;;;;;;1999.90;999.90;;;;;;;;;;5078515;28;20716;-42
2021/03/14 13:18:59;;;;;;;1999.90;999.90;;;;;;;;;;5078256;28;20235;-43
2021/03/14 13:21:45;;;;;;;1999.90;999.90;;;;;;;;;;5078550;28;20617;-42
2021/03/14 13:24:32;;;;;;;1999.90;999.90;;;;;;;;;;5078869;28;20207;-43
2021/03/14 13:27:18;;;;;;;1999.90;999.90;;;;;;;;;;5077970;28;20240;-35
2021/03/14 13:30:04;;;;;;;1999.90;999.90;;;;;;;;;;5078293;28;20297;-37
2021/03/14 13:32:53;;;;;;;1999.90;999.90;;;;;;;;;;5078135;28;20293;-42
2021/03/14 13:35:39;;;;;;;1999.90;999.90;;;;;;;;;;5078444;28;20217;-42
2021/03/14 13:38:27;;;;;;;1999.90;999.90;;;;;;;;;;5078497;28;20575;-43
2021/03/14 13:41:17;;;;;;;1999.90;999.90;;;;;;;;;;5078107;28;20197;-43
2021/03/14 13:44:04;;;;;;;1999.90;999.90;;;;;;;;;;5077831;28;20493;-42
2021/03/14 13:46:50;;;;;;;1999.90;999.90;;;;;;;;;;5081948;28;20203;-43
2021/03/14 13:49:36;;;;;;;1999.90;999.90;;;;;;;;;;5078232;28;20225;-43
2021/03/14 13:52:22;;;;;;;1999.90;999.90;;;;;;;;;;5077863;28;20354;-43
2021/03/14 13:55:21;;;;;;;1999.90;999.90;;;;;;;;;;5084558;28;20542;-42
2021/03/14 13:58:10;;;;;;;1999.90;999.90;;;;;;;;;;5097875;28;20209;-43
2021/03/14 14:00:57;;;;;;;1999.90;999.90;;;;;;;;;;5098201;28;20341;-43
2021/03/14 14:03:43;;;;;;;1999.90;999.90;;;;;;;;;;5120710;27;20253;-43
2021/03/14 14:06:31;;;;;;;1999.90;999.90;;;;;;;;;;5137496;27;20198;-44
2021/03/14 14:09:17;;;;;;;1999.90;999.90;;;;;;;;;;5135070;27;20226;-43
2021/03/14 14:12:03;;;;;;;1999.90;999.90;;;;;;;;;;5136177;27;20210;-45
2021/03/14 14:14:52;;;;;;;1999.90;999.90;;;;;;;;;;5133532;27;20600;-46
2021/03/14 14:17:39;;;;;;;1999.90;999.90;;;;;;;;;;5122338;27;20199;-45
2021/03/14 14:20:30;;;;;;;1999.90;999.90;;;;;;;;;;5136216;27;20247;-46
2021/03/14 14:23:21;;;;;;;1999.90;999.90;;;;;;;;;;5139169;27;20641;-46
2021/03/14 14:26:08;;;;;;;1999.90;999.90;;;;;;;;;;5138676;27;20210;-45
2021/03/14 14:28:59;;;;;;;1999.90;999.90;;;;;;;;;;5138429;27;20664;-45
2021/03/14 14:31:49;;;;;;;1999.90;999.90;;;;;;;;;;5138907;27;20225;-45
2021/03/14 14:34:36;;;;;;;1999.90;999.90;;;;;;;;;;5138784;27;20293;-44
2021/03/14 14:37:24;;;;;;;1999.90;999.90;;;;;;;;;;5139278;27;20202;-44
2021/03/14 14:40:14;;;;;;;1999.90;999.90;;;;;;;;;;5138259;27;20351;-44
2021/03/14 14:43:00;;;;;;;1999.90;999.90;;;;;;;;;;5138301;27;20347;-44
2021/03/14 14:45:47;;;;;;;1999.90;999.90;;;;;;;;;;5137506;27;20222;-44
2021/03/14 14:48:35;;;;;;;1999.90;999.90;;;;;;;;;;5137978;27;20315;-44
2021/03/14 14:51:23;;;;;;;1999.90;999.90;;;;;;;;;;5127273;27;20194;-45
2021/03/14 14:54:16;;;;;;;1999.90;999.90;;;;;;;;;;5118479;28;20203;-44
2021/03/14 14:57:02;;;;;;;1999.90;999.90;;;;;;;;;;5130507;27;20206;-44
2021/03/14 14:59:48;;;;;;;1999.90;999.90;;;;;;;;;;5117858;28;20194;-44
2021/03/14 15:02:34;;;;;;;1999.90;999.90;;;;;;;;;;5117874;28;20206;-44
2021/03/14 15:05:24;;;;;;;1999.90;999.90;;;;;;;;;;5128981;27;20202;-43
2021/03/14 15:08:10;;;;;;;1999.90;999.90;;;;;;;;;;5117080;28;20194;-44
2021/03/14 15:10:56;;;;;;;1999.90;999.90;;;;;;;;;;5116960;28;20612;-44
2021/03/14 15:13:44;;;;;;;1999.90;999.90;;;;;;;;;;5117456;28;20202;-43
2021/03/14 15:16:31;;;;;;;1999.90;999.90;;;;;;;;;;5123829;27;20197;-43
2021/03/14 15:19:16;;;;;;;1999.90;999.90;;;;;;;;;;5135617;27;20224;-43
2021/03/14 15:22:03;;;;;;;1999.90;999.90;;;;;;;;;;5137819;27;20340;-43
2021/03/14 15:24:49;;;;;;;1999.90;999.90;;;;;;;;;;5135700;28;20197;-43
2021/03/14 15:27:35;;;;;;;1999.90;999.90;;;;;;;;;;5117820;28;20295;-43
2021/03/14 15:30:21;;;;;;;1999.90;999.90;;;;;;;;;;5117373;28;20227;-43
2021/03/14 15:33:09;;;;;;;1999.90;999.90;;;;;;;;;;5117407;28;20336;-44
2021/03/14 15:35:55;;;;;;;1999.90;999.90;;;;;;;;;;5117135;28;20479;-44
2021/03/14 15:38:44;;;;;;;1999.90;999.90;;;;;;;;;;5117120;28;20202;-44
2021/03/14 15:41:34;;;;;;;1999.90;999.90;;;;;;;;;;5116234;28;20287;-43